createdAt,value
2022-08-16T00:00:56.130Z,25.25
2022-08-16T00:03:22.079Z,25.37
2022-08-16T00:05:49.923Z,25.30
2022-08-16T00:08:35.757Z,25.26
2022-08-16T00:11:02.458Z,24.89
2022-08-16T00:13:28.595Z,25.17
2022-08-16T00:15:54.593Z,25.47
2022-08-16T00:18:22.308Z,25.39
2022-08-16T00:20:56.043Z,25.34
2022-08-16T00:23:25.259Z,25.39
2022-08-16T00:26:33.306Z,25.39
2022-08-16T00:28:46.516Z,25.37
2022-08-16T00:31:12.698Z,25.30
2022-08-16T00:33:40.831Z,25.23
2022-08-16T00:36:16.038Z,25.33
2022-08-16T00:38:43.747Z,25.09
2022-08-16T00:41:09.815Z,24.94
2022-08-16T00:43:42.755Z,24.90
2022-08-16T00:46:33.274Z,24.79
2022-08-16T00:48:55.467Z,24.70
2022-08-16T00:51:22.780Z,24.74
2022-08-16T00:53:49.497Z,24.87
2022-08-16T00:56:56.808Z,24.97
2022-08-16T00:59:02.930Z,24.86
2022-08-16T01:01:28.986Z,24.92
2022-08-16T01:03:56.616Z,24.87
2022-08-16T01:06:39.563Z,24.97
2022-08-16T01:09:08.574Z,25.00
2022-08-16T01:11:34.506Z,24.96
2022-08-16T01:14:20.377Z,25.13
2022-08-16T01:16:55.965Z,24.81
2022-08-16T01:19:22.016Z,25.00
2022-08-16T01:21:47.965Z,25.11
2022-08-16T01:24:51.805Z,25.22
2022-08-16T01:27:03.864Z,24.94
2022-08-16T01:29:56.898Z,24.81
2022-08-16T01:32:27.442Z,25.01
2022-08-16T01:34:59.846Z,25.18
2022-08-16T01:37:26.227Z,24.98
2022-08-16T01:39:52.392Z,24.67
2022-08-16T01:42:19.282Z,25.07
2022-08-16T01:44:47.431Z,25.15
2022-08-16T01:47:18.219Z,24.95
2022-08-16T01:50:42.142Z,24.95
2022-08-16T01:52:30.861Z,25.01
2022-08-16T01:54:56.803Z,25.16
2022-08-16T01:57:22.980Z,25.21
2022-08-16T01:59:50.763Z,25.25
2022-08-16T02:02:26.805Z,25.46
2022-08-16T02:04:54.700Z,25.39
2022-08-16T02:07:23.519Z,25.31
2022-08-16T02:09:57.457Z,25.21
2022-08-16T02:12:50.596Z,25.44
2022-08-16T02:15:11.362Z,25.37
2022-08-16T02:17:37.352Z,25.27
2022-08-16T02:20:03.295Z,25.37
2022-08-16T02:22:37.453Z,25.45
2022-08-16T02:25:03.406Z,25.60
2022-08-16T02:27:29.348Z,25.31
2022-08-16T02:30:05.153Z,25.25
2022-08-16T02:32:49.148Z,25.46
2022-08-16T02:35:16.558Z,25.43
2022-08-16T02:37:52.330Z,25.40
2022-08-16T02:40:18.844Z,25.41
2022-08-16T02:42:44.842Z,25.35
2022-08-16T02:45:10.943Z,24.95
2022-08-16T02:48:01.358Z,25.19
2022-08-16T02:50:55.159Z,25.17
2022-08-16T02:53:10.027Z,25.43
2022-08-16T02:55:40.760Z,25.61
2022-08-16T02:58:07.503Z,25.71
2022-08-16T03:00:35.149Z,25.53
2022-08-16T03:03:03.367Z,25.43
2022-08-16T03:05:31.037Z,25.59
2022-08-16T03:07:57.678Z,25.70
2022-08-16T03:10:23.698Z,25.45
2022-08-16T03:12:59.741Z,25.49
2022-08-16T03:15:25.799Z,25.40
2022-08-16T03:17:54.241Z,25.56
2022-08-16T03:20:20.375Z,25.39
2022-08-16T03:22:57.749Z,25.46
2022-08-16T03:25:23.763Z,25.60
2022-08-16T03:27:49.697Z,25.58
2022-08-16T03:30:17.422Z,25.27
2022-08-16T03:32:44.131Z,25.41
2022-08-16T03:35:13.417Z,25.41
2022-08-16T03:38:01.573Z,25.64
2022-08-16T03:40:32.989Z,25.10
2022-08-16T03:43:19.214Z,25.25
2022-08-16T03:45:45.556Z,25.47
2022-08-16T03:48:15.060Z,25.40
2022-08-16T03:50:44.296Z,25.26
2022-08-16T03:53:27.010Z,25.40
2022-08-16T03:56:04.079Z,25.55
2022-08-16T03:58:30.077Z,25.60
2022-08-16T04:00:59.148Z,25.76
2022-08-16T04:03:25.547Z,25.70
2022-08-16T04:05:54.031Z,25.64
2022-08-16T04:08:23.882Z,25.83
2022-08-16T04:10:51.735Z,25.94
2022-08-16T04:13:20.745Z,25.87
2022-08-16T04:16:03.779Z,25.90
2022-08-16T04:18:32.597Z,25.85
2022-08-16T04:20:58.639Z,25.92
2022-08-16T04:23:25.542Z,25.95
2022-08-16T04:25:51.534Z,26.08
2022-08-16T04:28:54.686Z,26.02
2022-08-16T04:31:07.324Z,26.13
2022-08-16T04:33:50.505Z,26.24
2022-08-16T04:36:20.103Z,26.58
2022-08-16T04:38:46.928Z,26.33
2022-08-16T04:41:15.963Z,26.37
2022-08-16T04:43:43.875Z,26.43
2022-08-16T04:47:00.302Z,26.59
2022-08-16T04:49:01.242Z,26.43
2022-08-16T04:51:27.226Z,26.56
2022-08-16T04:54:04.651Z,26.50
2022-08-16T04:56:33.677Z,26.58
2022-08-16T04:58:59.778Z,26.52
2022-08-16T05:01:58.262Z,26.33
2022-08-16T05:04:19.280Z,26.39
2022-08-16T05:06:47.044Z,26.48
2022-08-16T05:09:16.502Z,26.46
2022-08-16T05:11:42.518Z,26.57
2022-08-16T05:14:08.503Z,26.58
2022-08-16T05:16:35.070Z,26.36
2022-08-16T05:19:01.017Z,26.64
2022-08-16T05:21:38.555Z,26.77
2022-08-16T05:24:06.198Z,26.57
2022-08-16T05:26:33.155Z,26.59
2022-08-16T05:28:59.099Z,26.55
2022-08-16T05:31:29.997Z,26.41
2022-08-16T05:33:56.329Z,26.50
2022-08-16T05:36:22.261Z,26.51
2022-08-16T05:38:48.228Z,26.63
2022-08-16T05:41:14.312Z,26.70
2022-08-16T05:43:47.820Z,26.96
2022-08-16T05:46:28.861Z,27.08
2022-08-16T05:49:00.108Z,27.08
2022-08-16T05:51:38.244Z,27.17
2022-08-16T05:54:05.143Z,27.26
2022-08-16T05:56:31.300Z,27.13
2022-08-16T05:59:00.157Z,27.15
2022-08-16T06:01:27.430Z,27.05
2022-08-16T06:03:58.866Z,27.40
2022-08-16T06:06:28.907Z,27.57
2022-08-16T06:08:55.167Z,27.90
2022-08-16T06:11:21.728Z,28.17
2022-08-16T06:13:51.535Z,27.92
2022-08-16T06:16:21.350Z,28.04
2022-08-16T06:18:47.296Z,28.23
2022-08-16T06:21:13.626Z,28.04
2022-08-16T06:23:48.986Z,27.78
2022-08-16T06:26:20.084Z,27.98
2022-08-16T06:28:46.150Z,27.81
2022-08-16T06:31:12.484Z,27.95
2022-08-16T06:33:41.835Z,27.90
2022-08-16T06:36:08.393Z,27.77
2022-08-16T06:38:34.666Z,27.77
2022-08-16T06:41:00.622Z,27.75
2022-08-16T06:43:28.447Z,27.96
2022-08-16T06:45:54.435Z,27.88
2022-08-16T06:48:20.374Z,28.05
2022-08-16T06:50:59.229Z,28.17
2022-08-16T06:53:25.175Z,28.30
2022-08-16T06:55:53.777Z,28.36
2022-08-16T06:58:21.968Z,28.47
2022-08-16T07:00:48.922Z,28.62
2022-08-16T07:03:27.227Z,28.39
2022-08-16T07:05:54.166Z,28.42
2022-08-16T07:08:20.128Z,28.70
2022-08-16T07:10:46.410Z,28.91
2022-08-16T07:13:19.664Z,29.00
2022-08-16T07:15:58.447Z,29.13
2022-08-16T07:18:24.850Z,29.11
2022-08-16T07:20:52.344Z,29.16
2022-08-16T07:23:19.900Z,29.24
2022-08-16T07:25:46.132Z,29.34
2022-08-16T07:28:20.992Z,29.32
2022-08-16T07:30:50.313Z,29.41
2022-08-16T07:33:17.188Z,29.62
2022-08-16T07:35:49.829Z,29.63
2022-08-16T07:38:17.275Z,29.57
2022-08-16T07:41:01.959Z,29.55
2022-08-16T07:43:32.036Z,29.59
2022-08-16T07:45:57.981Z,29.65
2022-08-16T07:48:24.665Z,29.88
2022-08-16T07:50:56.901Z,29.76
2022-08-16T07:53:24.918Z,29.68
2022-08-16T07:55:55.217Z,29.67
2022-08-16T07:58:35.205Z,29.69
2022-08-16T08:01:02.536Z,29.72
2022-08-16T08:03:36.129Z,30.00
2022-08-16T08:06:05.423Z,29.87
2022-08-16T08:08:51.017Z,29.78
2022-08-16T08:11:18.489Z,29.74
2022-08-16T08:13:44.459Z,29.81
2022-08-16T08:16:18.444Z,29.81
2022-08-16T08:18:50.135Z,29.74
2022-08-16T08:21:26.175Z,29.90
2022-08-16T08:23:53.824Z,29.87
2022-08-16T08:26:20.688Z,29.69
2022-08-16T08:28:46.840Z,29.95
2022-08-16T08:31:17.143Z,29.86
2022-08-16T08:33:47.184Z,30.11
2022-08-16T08:36:21.719Z,30.31
2022-08-16T08:38:48.314Z,30.43
2022-08-16T08:41:18.564Z,30.39
2022-08-16T08:43:45.035Z,30.56
2022-08-16T08:46:17.927Z,30.45
2022-08-16T08:49:00.084Z,30.86
2022-08-16T08:51:35.922Z,31.10
2022-08-16T08:54:06.881Z,30.95
2022-08-16T08:56:35.068Z,31.28
2022-08-16T08:59:05.948Z,31.71
2022-08-16T09:01:42.628Z,31.88
2022-08-16T09:04:09.226Z,32.15
2022-08-16T09:06:43.703Z,32.24
2022-08-16T09:09:09.854Z,31.84
2022-08-16T09:11:43.355Z,31.75
2022-08-16T09:14:09.331Z,31.86
2022-08-16T09:17:01.481Z,31.97
2022-08-16T09:19:33.184Z,31.93
2022-08-16T09:22:00.296Z,31.55
2022-08-16T09:24:46.877Z,31.77
2022-08-16T09:27:12.399Z,31.90
2022-08-16T09:29:44.926Z,32.05
2022-08-16T09:32:11.800Z,32.11
2022-08-16T09:34:38.192Z,32.01
2022-08-16T09:37:17.973Z,31.99
2022-08-16T09:42:56.176Z,32.27
2022-08-16T09:45:25.015Z,32.46
2022-08-16T09:47:56.328Z,32.59
2022-08-16T09:50:23.889Z,32.64
2022-08-16T09:52:51.154Z,32.87
2022-08-16T09:55:17.230Z,32.98
2022-08-16T09:57:43.385Z,33.03
2022-08-16T10:00:42.638Z,33.64
2022-08-16T10:03:05.155Z,33.90
2022-08-16T10:05:35.079Z,33.99
2022-08-16T10:08:01.098Z,33.99
2022-08-16T10:10:47.058Z,34.68
2022-08-16T10:13:14.214Z,34.51
2022-08-16T10:15:41.607Z,33.91
2022-08-16T10:18:56.386Z,33.94
2022-08-16T10:20:53.678Z,34.18
2022-08-16T10:23:23.419Z,33.39
2022-08-16T10:27:18.204Z,34.18
2022-08-16T10:28:40.297Z,34.09
2022-08-16T10:31:07.762Z,34.65
2022-08-16T10:33:34.163Z,34.71
2022-08-16T10:36:03.686Z,34.91
2022-08-16T10:38:30.194Z,34.82
2022-08-16T10:40:59.250Z,35.28
2022-08-16T10:43:26.334Z,35.89
2022-08-16T10:45:57.256Z,35.70
2022-08-16T10:48:29.171Z,36.20
2022-08-16T10:50:55.359Z,36.43
2022-08-16T10:53:21.739Z,36.55
2022-08-16T10:55:47.984Z,36.66
2022-08-16T10:58:34.639Z,36.97
2022-08-16T11:01:24.870Z,37.01
2022-08-16T11:03:47.338Z,36.66
2022-08-16T11:06:14.125Z,36.80
2022-08-16T11:08:45.002Z,37.25
2022-08-16T11:11:18.944Z,37.70
2022-08-16T11:14:10.785Z,37.87
2022-08-16T11:19:17.699Z,37.89
2022-08-16T11:24:41.227Z,37.86
2022-08-16T11:27:35.590Z,37.57
2022-08-16T11:29:55.648Z,37.33
2022-08-16T11:32:22.642Z,37.64
2022-08-16T11:35:14.350Z,37.99
2022-08-16T11:40:32.736Z,37.96
2022-08-16T11:42:59.030Z,38.47
2022-08-16T11:45:24.982Z,38.77
2022-08-16T11:47:52.798Z,37.73
2022-08-16T11:50:18.793Z,37.28
2022-08-16T11:52:46.568Z,37.23
2022-08-16T11:55:12.996Z,36.87
2022-08-16T11:57:38.933Z,37.04
2022-08-16T12:00:05.046Z,37.13
2022-08-16T12:02:33.380Z,36.83
2022-08-16T12:04:59.369Z,36.99
2022-08-16T12:07:27.010Z,36.78
2022-08-16T12:09:54.249Z,36.01
2022-08-16T12:12:20.200Z,36.07
2022-08-16T12:14:46.159Z,36.23
2022-08-16T12:23:00.369Z,35.77
2022-08-16T12:28:25.349Z,35.25
2022-08-16T12:31:06.157Z,35.12
2022-08-16T12:33:32.535Z,35.18
2022-08-16T12:36:13.210Z,35.40
2022-08-16T12:38:47.815Z,35.86
2022-08-16T12:41:15.148Z,35.46
2022-08-16T12:43:50.680Z,34.84
2022-08-16T12:46:18.277Z,33.91
2022-08-16T12:48:44.218Z,34.47
2022-08-16T12:51:13.477Z,35.02
2022-08-16T12:53:46.471Z,35.54
2022-08-16T12:56:12.747Z,36.22
2022-08-16T12:58:48.485Z,36.75
2022-08-16T13:01:16.923Z,36.90
2022-08-16T13:03:43.354Z,36.57
2022-08-16T13:06:09.301Z,36.87
2022-08-16T13:08:36.491Z,36.70
2022-08-16T13:11:02.490Z,36.57
2022-08-16T13:13:29.552Z,36.76
2022-08-16T13:16:00.853Z,36.45
2022-08-16T13:18:34.207Z,36.07
2022-08-16T13:21:00.873Z,36.64
2022-08-16T13:23:26.825Z,36.93
2022-08-16T13:25:52.774Z,37.09
2022-08-16T13:28:21.957Z,36.78
2022-08-16T13:30:48.411Z,36.74
2022-08-16T13:33:18.254Z,36.43
2022-08-16T13:35:56.235Z,36.11
2022-08-16T13:38:24.421Z,36.39
2022-08-16T13:40:51.183Z,36.20
2022-08-16T13:43:17.401Z,35.80
2022-08-16T13:45:44.806Z,35.96
2022-08-16T13:48:11.104Z,34.73
2022-08-16T13:50:52.020Z,34.66
2022-08-16T13:53:18.293Z,34.36
2022-08-16T13:55:44.241Z,34.56
2022-08-16T14:01:09.865Z,33.88
2022-08-16T14:03:36.284Z,33.93
2022-08-16T14:06:03.811Z,33.85
2022-08-16T14:08:29.761Z,33.99
2022-08-16T14:10:55.704Z,33.98
2022-08-16T14:13:22.218Z,33.58
2022-08-16T14:15:48.190Z,33.68
2022-08-16T14:18:23.319Z,33.92
2022-08-16T14:20:57.248Z,33.90
2022-08-16T14:23:23.764Z,33.70
2022-08-16T14:25:53.788Z,33.73
2022-08-16T14:28:20.588Z,33.93
2022-08-16T14:30:49.615Z,33.81
2022-08-16T14:33:17.373Z,34.20
2022-08-16T14:35:50.178Z,34.75
2022-08-16T14:38:18.704Z,34.68
2022-08-16T14:40:47.168Z,34.15
2022-08-16T14:43:18.543Z,34.32
2022-08-16T14:45:44.500Z,34.84
2022-08-16T14:48:10.621Z,34.91
2022-08-16T14:50:36.576Z,34.74
2022-08-16T14:53:03.813Z,35.00
2022-08-16T14:55:30.110Z,35.09
2022-08-16T14:57:56.244Z,34.79
2022-08-16T15:00:22.205Z,34.64
2022-08-16T15:02:58.936Z,34.55
2022-08-16T15:05:24.915Z,34.32
2022-08-16T15:07:55.075Z,34.43
2022-08-16T15:10:24.252Z,35.02
2022-08-16T15:12:50.482Z,35.76
2022-08-16T15:15:17.020Z,35.30
2022-08-16T15:17:53.755Z,35.60
2022-08-16T15:20:22.390Z,36.05
2022-08-16T15:22:48.502Z,35.69
2022-08-16T15:25:14.466Z,35.92
2022-08-16T15:27:41.954Z,35.30
2022-08-16T15:30:44.782Z,35.17
2022-08-16T15:32:54.247Z,34.95
2022-08-16T15:35:24.842Z,35.09
2022-08-16T15:37:54.757Z,35.09
2022-08-16T15:40:26.844Z,34.99
2022-08-16T15:43:03.499Z,34.93
2022-08-16T15:45:32.610Z,34.71
2022-08-16T15:47:58.933Z,34.47
2022-08-16T15:50:29.898Z,34.58
2022-08-16T15:52:55.851Z,34.96
2022-08-16T15:55:29.593Z,35.13
2022-08-16T15:58:01.231Z,35.11
2022-08-16T16:00:47.178Z,34.83
2022-08-16T16:03:13.857Z,34.96
2022-08-16T16:05:39.806Z,35.08
2022-08-16T16:08:11.009Z,35.22
2022-08-16T16:10:37.460Z,35.54
2022-08-16T16:13:05.405Z,35.97
2022-08-16T16:15:34.840Z,35.78
2022-08-16T16:18:09.610Z,35.69
2022-08-16T16:20:38.935Z,35.66
2022-08-16T16:23:10.453Z,35.70
2022-08-16T16:25:36.737Z,35.90
2022-08-16T16:28:02.788Z,36.12
2022-08-16T16:30:45.065Z,36.27
2022-08-16T16:33:11.478Z,36.43
2022-08-16T16:35:41.813Z,36.45
2022-08-16T16:38:12.921Z,36.34
2022-08-16T16:40:46.370Z,36.25
2022-08-16T16:43:20.022Z,35.75
2022-08-16T16:45:52.079Z,35.78
2022-08-16T16:48:18.020Z,35.60
2022-08-16T16:50:45.525Z,34.90
2022-08-16T16:53:17.409Z,34.76
2022-08-16T16:55:44.111Z,35.47
2022-08-16T16:58:17.698Z,35.45
2022-08-16T17:00:56.427Z,35.34
2022-08-16T17:03:26.527Z,35.12
2022-08-16T17:06:00.354Z,34.76
2022-08-16T17:11:31.799Z,33.92
2022-08-16T17:14:03.489Z,34.02
2022-08-16T17:19:24.291Z,33.94
2022-08-16T17:21:57.510Z,33.62
2022-08-16T17:24:39.254Z,33.56
2022-08-16T17:27:06.104Z,33.63
2022-08-16T17:29:32.111Z,33.53
2022-08-16T17:32:02.531Z,33.55
2022-08-16T17:34:46.417Z,33.60
2022-08-16T17:37:16.434Z,33.62
2022-08-16T17:39:57.274Z,33.55
2022-08-16T17:42:27.152Z,33.44
2022-08-16T17:44:54.628Z,33.39
2022-08-16T17:47:20.932Z,33.14
2022-08-16T17:49:47.349Z,33.05
2022-08-16T17:52:13.296Z,32.92
2022-08-16T17:54:39.247Z,32.81
2022-08-16T17:57:05.375Z,32.64
2022-08-16T17:59:31.704Z,32.53
2022-08-16T18:02:42.302Z,32.35
2022-08-16T18:04:50.298Z,32.05
2022-08-16T18:07:16.350Z,31.98
2022-08-16T18:09:42.291Z,31.89
2022-08-16T18:12:08.430Z,31.73
2022-08-16T18:14:52.279Z,31.74
2022-08-16T18:17:19.369Z,31.66
2022-08-16T18:19:45.319Z,31.58
2022-08-16T18:22:11.267Z,31.58
2022-08-16T18:24:37.527Z,31.66
2022-08-16T18:27:24.720Z,31.54
2022-08-16T18:29:49.972Z,31.47
2022-08-16T18:32:18.071Z,31.38
2022-08-16T18:34:50.673Z,31.15
2022-08-16T18:37:16.642Z,31.03
2022-08-16T18:39:42.608Z,30.92
2022-08-16T18:42:08.808Z,30.90
2022-08-16T18:44:35.242Z,30.81
2022-08-16T18:47:01.247Z,30.77
2022-08-16T18:52:22.131Z,30.53
2022-08-16T18:55:01.794Z,30.41
2022-08-16T18:57:29.160Z,30.31
2022-08-16T19:02:58.818Z,30.13
2022-08-16T19:05:25.320Z,30.06
2022-08-16T19:10:45.220Z,29.92
2022-08-16T19:13:11.168Z,29.80
2022-08-16T20:54:23.856Z,28.29
2022-08-16T20:56:49.820Z,28.34
2022-08-16T20:59:16.526Z,28.27
2022-08-16T21:01:46.875Z,28.27
2022-08-16T21:04:16.839Z,28.18
2022-08-16T21:06:42.787Z,28.18
2022-08-16T21:09:20.950Z,28.30
2022-08-16T21:11:46.915Z,28.29
2022-08-16T21:14:12.866Z,28.22
2022-08-16T21:16:38.864Z,28.25
2022-08-16T21:19:04.806Z,28.23
2022-08-16T21:21:33.641Z,28.26
2022-08-16T21:24:00.623Z,28.36
2022-08-16T21:26:26.562Z,28.27
2022-08-16T21:28:54.825Z,27.87
2022-08-16T21:31:21.944Z,27.99
2022-08-16T21:33:55.628Z,28.08
2022-08-16T21:36:35.530Z,28.10
2022-08-16T21:39:01.990Z,28.04
2022-08-16T21:41:28.863Z,28.02
2022-08-16T21:43:54.798Z,27.79
2022-08-16T21:46:20.760Z,27.86
2022-08-16T21:48:48.015Z,27.83
2022-08-16T21:51:15.178Z,27.79
2022-08-16T21:53:41.123Z,27.76
2022-08-16T21:56:07.336Z,27.58
2022-08-16T21:58:35.818Z,27.61
2022-08-16T22:01:01.756Z,27.36
2022-08-16T22:03:28.335Z,27.33
2022-08-16T22:06:13.123Z,27.46
2022-08-16T22:08:49.357Z,27.39
2022-08-16T22:11:16.711Z,27.40
2022-08-16T22:13:43.038Z,27.41
2022-08-16T22:16:17.289Z,27.29
2022-08-16T22:18:43.814Z,27.19
2022-08-16T22:21:18.523Z,27.13
2022-08-16T22:23:45.039Z,27.10
2022-08-16T22:26:21.342Z,26.76
2022-08-16T22:28:57.333Z,26.90
2022-08-16T22:31:23.279Z,26.92
2022-08-16T22:33:49.299Z,26.86
2022-08-16T22:36:23.887Z,26.76
2022-08-16T22:38:57.522Z,26.84
2022-08-16T22:47:12.787Z,26.70
2022-08-16T22:53:04.839Z,26.59
2022-08-16T23:36:01.381Z,25.79
2022-08-16T23:41:21.387Z,25.77
2022-08-16T23:43:47.341Z,25.82
2022-08-16T23:46:13.495Z,25.97
2022-08-16T23:49:58.370Z,25.87
2022-08-16T23:51:25.399Z,25.43
2022-08-16T23:53:51.340Z,25.56
2022-08-16T23:56:17.285Z,25.50
2022-08-16T23:58:43.412Z,25.41
